YSTW

Tamworth Airport

Tamworth, Australia
TAF YSTW 190500Z 1906/1924 31008KT 9999 -SHRA FEW040 FM190800 06008KT 9999 FEW040 FM192200 34010KT 9999 FEW040
Issued Valid From Valid To
Oct-19 @ 05:00 UTC
(5 hours ago)
Oct-19 @ 06:00 UTC
(4 hours ago)
Oct-20 @ 00:00 UTC
(in 14 hours)
Expired Click to View Oct-19 @ 06:00 to Oct-19 @ 08:00
TAF YSTW 190500Z 1906/1924 31008KT 9999 -SHRA FEW040
Wind Visibility Clouds Conditions
310° at 8 knots 10,000+ meters
  • Few at 4,000' AGL
  • Light Rain
From Oct-19 @ 08:00 to Oct-19 @ 22:00
FM190800 06008KT 9999 FEW040
Wind Visibility Clouds
60° at 8 knots 10,000+ meters
  • Few at 4,000' AGL
From Oct-19 @ 22:00 to Oct-20 @ 00:00
FM192200 34010KT 9999 FEW040
Wind Visibility Clouds
340° at 10 knots 10,000+ meters
  • Few at 4,000' AGL
TAF YSTW 190500Z 1906/1924 31008KT 9999 -SHRA FEW040 FM190800 06008KT 9999 FEW040 FM192200 34010KT 9999 FEW040
Issued Oct-19 @ 05:00 UTC
(5 hours ago)
Valid From Oct-19 @ 06:00 UTC
(4 hours ago)
Valid To Oct-20 @ 00:00 UTC
(in 14 hours)
Oct-19 @ 06:00 - Oct-19 @ 08:00
Wind Visibility
310° at 8 knots 10,000+ meters
Clouds
  • Few at 4,000' AGL
Conditions
  • Light Rain
From Oct-19 @ 08:00 - Oct-19 @ 22:00
Wind Visibility
60° at 8 knots 10,000+ meters
Clouds
  • Few at 4,000' AGL
From Oct-19 @ 22:00 - Oct-20 @ 00:00
Wind Visibility
340° at 10 knots 10,000+ meters
Clouds
  • Few at 4,000' AGL